METAR Data
IDs: Format: Raw Decoded Include TAF

Data at: 1422 UTC 25 Nov 2020

EGPH 251350Z 24011KT 9999 FEW016 09/06 Q1010
EGPH 251320Z 24012KT 9999 FEW016 SCT041 09/06 Q1010
EGPH 251250Z 24011KT 9999 FEW015 09/06 Q1009
EGPH 251220Z 22010KT CAVOK 08/06 Q1009
EGPH 251150Z 22011KT 9999 FEW028 08/06 Q1009
EGPH 251120Z 22010KT 9999 FEW044 08/06 Q1009
EGPH 251050Z 22009KT 9999 SCT039 07/06 Q1009
EGPH 251020Z 22008KT 9999 FEW043 07/05 Q1009
EGPH 250950Z 23006KT 9999 SCT042 06/05 Q1008
EGPH 250920Z 23006KT CAVOK 05/04 Q1008
EGPH 250850Z VRB03KT 9999 FEW044 04/04 Q1008
EGPH 250820Z 24005KT CAVOK 04/03 Q1008
EGPH 250750Z 26004KT CAVOK 05/04 Q1007
EGPH 250720Z 24006KT CAVOK 04/04 Q1007
EGPH 250650Z 24007KT CAVOK 04/03 Q1006
EGPH 250620Z 23007KT CAVOK 03/02 Q1006
EGPH 250550Z 23006KT CAVOK 03/03 Q1006
EGPH 250520Z 25006KT CAVOK 04/04 Q1006
EGPH 250450Z 24007KT CAVOK 03/03 Q1005
EGPH 250420Z 25004KT 230V310 CAVOK 05/04 Q1005
EGPH 250350Z 22007KT CAVOK 06/05 Q1005
EGPH 250320Z 24006KT CAVOK 05/05 Q1005
EGPH 250250Z 23005KT CAVOK 06/05 Q1005
EGPH 250150Z 25006KT CAVOK 06/05 Q1004
EGPH 250120Z 23006KT 9999 FEW044 06/05 Q1004
EGPH 250050Z 24006KT 9999 -RA NSC 06/05 Q1004
EGPH 250020Z 24006KT 9999 -RA BKN047 06/06 Q1004
EGPH 242350Z 24007KT 9999 -RA FEW048 07/06 Q1004
EGPH 242320Z 25007KT 9999 -RA FEW014 07/06 Q1003
EGPH 242250Z 24007KT 9999 -RA FEW047 07/06 Q1003
EGPH 242220Z 24008KT 9999 -RA BKN044 07/06 Q1003
EGPH 242150Z 24008KT 9999 -RA OVC044 07/06 Q1003
EGPH 242120Z 24009KT 9999 -RA OVC047 07/06 Q1002
EGPH 242050Z 25009KT 9999 -RA OVC037 07/06 Q1002
EGPH 242020Z 25011KT 9999 -RA OVC037 07/06 Q1002
EGPH 241950Z 25011KT 9999 -RA SCT010 OVC033 08/07 Q1001
EGPH 241920Z 26009KT 9000 -RA SCT011 BKN023 09/07 Q1001 RERA REDZ
EGPH 241850Z 27010KT 6000 RADZ SCT010 BKN024 11/09 Q1000
EGPH 241820Z 21016KT 9999 BKN023 12/09 Q1000
EGPH 241750Z 20014KT 170V230 9999 BKN020 OVC049 12/09 Q1000
EGPH 241720Z 20016G26KT 9999 FEW019 BKN026 12/09 Q1000
EGPH 241650Z 20017KT 9999 BKN019 BKN038 11/09 Q1000
EGPH 241620Z 21018KT 9999 OVC023 12/08 Q1000
EGPH 241550Z 21021KT 9999 BKN022 12/08 Q1000
EGPH 241520Z 21018KT 9999 BKN024 12/08 Q1001
EGPH 241450Z 21017KT 9999 BKN019 BKN034 12/09 Q1001
EGPH 241420Z 21017KT 9999 BKN020 OVC036 12/09 Q1001
EGPH 241350Z 21020G31KT 9999 FEW020 12/09 Q1001
EGPH 241320Z 20020G30KT 9999 -RA FEW027 12/09 Q1001
EGPH 241250Z 21021G32KT 9999 -RA SCT019 12/10 Q1002
EGPH 241220Z 21018KT 9999 -RA FEW020 BKN030 OVC046 13/10 Q1003
EGPH 241150Z 20015KT 9999 BKN020 BKN034 13/10 Q1003
EGPH 241120Z 21011KT 9999 BKN020 13/10 Q1004
EGPH 241050Z 21012KT 9999 FEW017 12/10 Q1004
EGPH 241020Z 20010KT 9999 -RA SCT018 12/10 Q1005
EGPH 240950Z 21016KT 9999 VCSH FEW034 SCT047 12/09 Q1005
EGPH 240920Z 21013KT 9999 -RA FEW021 11/09 Q1005
EGPH 240850Z 21014KT 9999 SCT016 11/10 Q1006
EGPH 240820Z 23004KT 210V270 9999 -RA OVC014 10/09 Q1006
EGPH 240750Z 24008KT 6000 -RA OVC014 10/09 Q1006
EGPH 240720Z 23010KT 9999 -RA FEW010 OVC020 10/09 Q1006
EGPH 240650Z 22009KT 4500 -DZ BKN011 OVC028 11/10 Q1006
EGPH 240620Z 20004KT 150V230 9999 -RA OVC035 10/09 Q1006
EGPH 240550Z 23003KT 9999 -RA BKN036 10/09 Q1006
EGPH 240520Z 23007KT 9999 -RA BKN031 10/09 Q1006
EGPH 240420Z 24009KT 9999 -RA OVC034 10/09 Q1006
EGPH 240350Z 25011KT 9999 -RA BKN015 OVC041 11/09 Q1006
EGPH 240320Z 26012KT 8000 -RA OVC012 11/10 Q1006
EGPH 240250Z 26011KT 7000 -RA OVC011 11/10 Q1007